Latest Weather Observations for PORTABLE QFRK (Ravenshoe)

IDQ60801

Issued at 8:12 am EST Tuesday 22 January 2019 (issued every 10 minutes, with the page automatically refreshed every 10 minutes)

About weather observations | Map of weather stations | Latest weather observations for QLD | Other Formats
Station Details ID: 250075 Name: PORTABLE QFRK (RAVENSHOE) Lat: -17.61 Lon: 145.49 Height: 922.0 m
Data from the previous 72 hours. | See also: Recent months for locations in Queensland
Date/Time
EST
Temp
°C
App
Temp
°C
Dew
Point
°C
Rel
Hum
%
Delta-T
°C
Wind Press
QNH
hPa
Press
MSL
hPa
Rain since
9am
mm
Dir  Spd
km/h
Gust
km/h
Spd
kts
Gust
kts
22/08:00am 20.1 20.7 17.6 85 1.6 E 11 13 6 7 - - 2.0
22/07:50am 20.4 21.5 17.9 85 1.6 ENE 9 15 5 8 - - 2.0
22/07:40am 20.3 20.5 17.6 84 1.7 E 13 17 7 9 - - 2.0
22/07:30am 19.6 19.8 17.6 88 1.3 E 13 13 7 7 - - 2.0
22/07:20am 19.3 19.9 17.7 90 1.0 ENE 11 15 6 8 - - 2.0
22/07:10am 19.2 19.3 17.5 90 1.1 ENE 13 17 7 9 - - 2.0
22/07:00am 19.1 19.2 17.5 90 1.0 E 13 17 7 9 - - 2.0
22/06:50am 19.1 19.7 17.6 91 1.0 E 11 15 6 8 - - 2.0
22/06:40am 19.1 19.7 17.6 91 1.0 ENE 11 17 6 9 - - 2.0
22/06:30am 19.0 19.1 17.5 91 1.0 ENE 13 15 7 8 - - 2.0
22/06:20am 19.0 19.1 17.5 91 1.0 E 13 15 7 8 - - 2.0
22/06:10am 19.0 18.8 17.5 91 1.0 E 15 15 8 8 - - 2.0
22/06:00am 19.0 19.2 17.6 92 0.9 E 13 19 7 10 - - 2.0
22/05:50am 19.1 19.1 17.3 89 1.1 E 13 17 7 9 - - 2.0
22/05:40am 19.1 19.7 17.7 92 0.9 E 11 15 6 8 - - 2.0
22/05:30am 19.0 19.2 17.6 92 0.9 E 13 17 7 9 - - 2.0
22/05:20am 18.9 19.5 17.6 92 0.8 E 11 15 6 8 - - 2.0
22/05:10am 18.8 18.9 17.5 92 0.8 E 13 17 7 9 - - 2.0
22/05:00am 18.8 18.5 17.3 91 0.9 E 15 19 8 10 - - 2.0
22/04:50am 18.7 18.7 17.1 90 1.0 E 13 17 7 9 - - 2.0
22/04:40am 18.8 19.2 17.3 91 0.9 E 11 15 6 8 - - 2.0
22/04:30am 18.8 19.6 17.4 91 0.9 ENE 9 15 5 8 - - 2.0
22/04:20am 18.7 19.5 17.2 91 0.9 E 9 11 5 6 - - 2.0
22/04:10am 18.6 18.8 16.8 89 1.1 E 11 13 6 7 - - 2.0
22/04:00am 18.6 18.5 17.0 90 1.0 E 13 17 7 9 - - 2.0
22/03:50am 18.7 18.7 17.2 91 0.9 E 13 15 7 8 - - 2.0
22/03:40am 18.7 19.1 17.2 91 0.9 E 11 13 6 7 - - 2.0
22/03:30am 18.6 19.3 17.1 91 0.9 E 9 11 5 6 - - 2.0
22/03:20am 18.7 18.7 17.1 90 1.0 E 13 19 7 10 - - 2.0
22/03:10am 18.7 19.9 17.3 91 0.9 E 7 11 4 6 - - 2.0
22/03:00am 18.7 19.9 17.3 91 0.9 E 7 11 4 6 - - 2.0
22/02:50am 18.7 19.1 17.3 91 0.9 E 11 13 6 7 - - 2.0
22/02:40am 18.7 19.1 17.3 91 0.9 E 11 19 6 10 - - 2.0
22/02:30am 18.7 19.2 17.5 93 0.8 E 11 19 6 10 - - 2.0
22/02:20am 18.7 19.5 17.4 92 0.8 E 9 15 5 8 - - 2.0
22/02:00am 18.5 19.0 17.4 93 0.7 ENE 11 15 6 8 - - 2.0
22/01:50am 18.6 18.7 17.5 93 0.7 E 13 17 7 9 - - 2.0
22/01:40am 18.6 18.7 17.5 93 0.7 E 13 17 7 9 - - 2.0
22/01:30am 18.6 19.1 17.4 93 0.8 E 11 13 6 7 - - 2.0
22/01:20am 18.5 19.3 17.3 93 0.8 E 9 15 5 8 - - 2.0
22/01:10am 18.6 18.6 17.2 91 0.9 E 13 15 7 8 - - 2.0
22/01:00am 18.9 19.3 17.3 90 1.0 E 11 17 6 9 - - 2.0
22/12:50am 19.0 20.2 17.3 90 1.1 E 7 11 4 6 - - 2.0
22/12:40am 18.9 20.2 17.2 90 1.1 E 6 7 3 4 - - 2.0
22/12:30am 18.8 19.9 17.2 90 1.0 ESE 7 13 4 7 - - 2.0
22/12:20am 18.9 18.9 17.1 89 1.1 E 13 20 7 11 - - 2.0
22/12:10am 19.0 19.3 17.1 89 1.2 ESE 11 15 6 8 - - 2.0
22/12:00am 19.0 19.7 17.1 89 1.2 E 9 15 5 8 - - 2.0
 
Date/Time
EST
Temp
°C
App
Temp
°C
Dew
Point
°C
Rel
Hum
%
Delta-T
°C
Wind Press
QNH
hPa
Press
MSL
hPa
Rain since
9am
mm
Dir  Spd
km/h
Gust
km/h
Spd
kts
Gust
kts
21/11:50pm 19.0 20.1 17.2 89 1.1 E 7 11 4 6 - - 2.0
21/11:40pm 19.0 19.8 17.2 89 1.1 E 9 15 5 8 - - 2.0
21/11:30pm 19.0 19.8 17.2 89 1.1 E 9 13 5 7 - - 2.0
21/11:20pm 19.0 19.8 17.2 89 1.1 E 9 11 5 6 - - 2.0
21/11:10pm 19.1 19.1 17.1 88 1.3 E 13 15 7 8 - - 2.0
21/11:00pm 19.0 19.3 17.1 89 1.2 E 11 15 6 8 - - 2.0
21/10:50pm 18.8 19.9 17.0 89 1.1 ESE 7 11 4 6 - - 2.0
21/10:40pm 18.5 19.6 16.7 89 1.1 E 6 9 3 5 - - 2.0
21/10:30pm 18.2 19.3 16.6 90 1.0 ENE 6 9 3 5 - - 2.0
21/10:20pm 18.3 20.2 16.7 90 1.0 ENE 2 4 1 2 - - 2.0
21/10:10pm 18.5 20.0 16.7 89 1.1 ENE 4 4 2 2 - - 2.0
21/10:00pm 18.6 20.2 16.8 89 1.1 NE 4 6 2 3 - - 2.0
21/09:50pm 18.6 20.1 16.7 89 1.2 E 4 7 2 4 - - 2.0
21/09:40pm 18.4 19.5 16.6 89 1.1 ENE 6 7 3 4 - - 2.0
21/09:30pm 18.5 19.6 16.7 89 1.1 E 6 11 3 6 - - 2.0
21/09:20pm 18.6 19.8 16.8 89 1.1 ENE 6 7 3 4 - - 2.0
21/09:10pm 18.7 19.7 16.8 89 1.2 E 7 9 4 5 - - 2.0
21/09:00pm 18.8 20.4 17.0 89 1.1 E 4 7 2 4 - - 2.0
21/08:50pm 18.9 20.7 17.3 90 1.0 ENE 4 6 2 3 - - 2.0
21/08:40pm 19.0 20.2 17.3 90 1.1 E 7 11 4 6 - - 2.0
21/08:30pm 19.1 20.3 17.4 90 1.1 ESE 7 11 4 6 - - 2.0
21/08:20pm 19.0 20.2 17.4 90 1.0 ESE 7 11 4 6 - - 2.0
21/08:00pm 18.9 20.0 17.2 90 1.1 E 7 13 4 7 - - 2.0
21/07:50pm 19.0 19.8 17.2 89 1.1 E 9 11 5 6 - - 2.0
21/07:40pm 18.9 20.2 17.0 89 1.2 ESE 6 9 3 5 - - 2.0
21/07:30pm 19.0 20.2 16.8 87 1.4 ESE 6 7 3 4 - - 2.0
21/07:20pm 19.1 20.7 16.9 87 1.4 ESE 4 6 2 3 - - 2.0
21/07:10pm 19.4 21.1 17.1 86 1.5 ESE 4 11 2 6 - - 2.0
21/07:00pm 19.5 20.3 17.2 86 1.5 E 9 13 5 7 - - 2.0
21/06:50pm 19.8 21.2 17.3 85 1.6 ESE 6 11 3 6 - - 2.0
21/06:40pm 20.2 22.1 17.7 85 1.6 ESE 4 9 2 5 - - 2.0
21/06:30pm 20.3 21.7 17.7 85 1.7 E 7 11 4 6 - - 2.0
21/06:20pm 20.8 22.1 17.6 82 2.0 ESE 7 9 4 5 - - 2.0
21/06:10pm 21.7 23.4 18.5 82 2.1 SE 7 11 4 6 - - 2.0
21/06:00pm 22.3 23.7 17.9 76 2.8 SE 7 9 4 5 - - 2.0
21/05:50pm 21.9 23.3 17.7 77 2.7 SE 7 11 4 6 - - 2.0
21/05:40pm 22.4 23.7 18.4 78 2.6 SE 9 13 5 7 - - 2.0
21/05:30pm 22.7 24.1 17.8 74 3.2 SE 7 11 4 6 - - 2.0
21/05:20pm 21.6 23.2 18.2 81 2.2 ESE 7 13 4 7 - - 2.0
21/05:10pm 21.3 22.4 18.1 82 2.1 ESE 9 15 5 8 - - 2.0
21/05:00pm 22.1 22.6 18.3 79 2.5 E 13 17 7 9 - - 2.0
21/04:50pm 22.8 23.4 18.5 77 2.8 E 13 20 7 11 - - 2.0
21/04:40pm 22.5 23.6 18.1 76 2.9 ESE 9 13 5 7 - - 2.0
21/04:30pm 22.8 22.9 18.4 76 2.9 E 15 19 8 10 - - 2.0
21/04:20pm 23.2 22.6 18.4 74 3.1 E 19 24 10 13 - - 2.0
21/04:10pm 22.8 22.2 18.8 78 2.6 E 20 24 11 13 - - 2.0
21/04:00pm 22.9 23.5 18.6 77 2.8 ESE 13 20 7 11 - - 2.0
21/03:50pm 22.7 23.7 18.6 77 2.7 ESE 11 15 6 8 - - 2.0
21/03:40pm 21.6 22.2 18.7 83 1.9 E 13 17 7 9 - - 2.0
21/03:30pm 20.9 21.9 18.6 87 1.5 E 11 15 6 8 - - 2.0
21/03:20pm 20.6 20.9 18.7 89 1.2 E 15 20 8 11 - - 2.0
21/03:10pm 21.5 21.5 19.0 86 1.6 E 17 24 9 13 - - 2.0
21/03:00pm 23.0 23.4 19.1 78 2.6 E 15 19 8 10 - - 1.6
21/02:50pm 23.0 23.4 19.0 78 2.6 E 15 20 8 11 - - 1.6
21/02:40pm 22.7 23.6 19.2 80 2.3 ESE 13 19 7 10 - - 1.6
21/02:30pm 22.1 22.4 18.7 81 2.2 E 15 19 8 10 - - 1.6
21/02:20pm 21.4 21.7 18.7 84 1.8 E 15 17 8 9 - - 1.6
21/02:10pm 21.0 21.5 18.4 85 1.7 E 13 15 7 8 - - 1.6
21/02:00pm 20.9 22.1 19.0 89 1.2 ESE 11 17 6 9 - - 1.6
21/01:50pm 21.8 23.1 19.2 85 1.7 ESE 11 15 6 8 - - 1.0
21/01:40pm 23.4 23.2 18.4 73 3.3 E 17 24 9 13 - - 0.8
21/01:30pm 22.8 22.3 18.6 77 2.7 E 19 22 10 12 - - 0.8
21/01:20pm 22.9 22.7 18.4 76 2.9 E 17 22 9 12 - - 0.8
21/01:10pm 22.0 21.7 19.2 84 1.8 E 19 24 10 13 - - 0.8
21/01:00pm 22.7 22.9 19.4 81 2.2 E 17 22 9 12 - - 0.8
21/12:50pm 21.7 22.0 19.5 87 1.5 E 17 22 9 12 - - 0.8
21/12:40pm 21.1 20.7 18.8 87 1.5 E 19 24 10 13 - - 0.8
21/12:30pm 21.0 20.6 19.0 88 1.3 E 19 24 10 13 - - 0.8
21/12:20pm 21.5 22.2 19.6 89 1.3 E 15 19 8 10 - - 0.8
21/12:10pm 21.6 21.4 19.4 87 1.5 E 19 22 10 12 - - 0.6
21/12:00pm 22.4 22.5 20.0 86 1.6 E 19 24 10 13 - - 0.6
21/11:50am 21.7 22.4 19.6 88 1.4 E 15 20 8 11 - - 0.6
21/11:40am 21.4 22.3 19.3 88 1.4 E 13 19 7 10 - - 0.6
21/11:30am 21.0 22.0 19.5 91 1.0 ENE 13 15 7 8 - - 0.6
21/11:20am 20.7 21.2 19.3 92 0.9 E 15 17 8 9 - - 0.6
21/11:10am 20.9 21.4 19.2 90 1.1 E 15 20 8 11 - - 0.2
21/11:00am 20.9 22.0 18.9 88 1.3 E 11 13 6 7 - - 0.2
21/10:50am 20.3 20.1 18.5 89 1.2 E 17 20 9 11 - - 0.2
21/10:40am 20.2 19.4 18.0 87 1.4 E 19 26 10 14 - - 0.2
21/10:30am 20.2 20.0 18.5 90 1.1 E 17 22 9 12 - - 0.2
21/10:20am 20.1 20.3 18.6 91 1.0 E 15 20 8 11 - - 0.0
21/10:10am 20.4 20.2 18.4 88 1.3 E 17 22 9 12 - - 0.0
21/10:00am 21.0 20.8 18.4 85 1.7 E 17 20 9 11 - - 0.0
21/09:50am 20.5 21.1 18.5 88 1.3 E 13 19 7 10 - - 0.0
21/09:40am 20.6 20.4 18.4 87 1.4 E 17 22 9 12 - - 0.0
21/09:30am 20.5 20.2 18.3 87 1.4 E 17 22 9 12 - - 0.0
21/09:20am 20.2 21.2 18.7 91 1.0 E 11 15 6 8 - - 0.0
21/09:10am 20.0 20.5 18.3 90 1.1 E 13 19 7 10 - - 0.0
21/09:00am 19.8 19.4 18.0 89 1.2 E 17 20 9 11 - - 2.0
21/08:50am 19.6 18.8 18.0 90 1.0 E 19 24 10 13 - - 2.0
21/08:40am 19.5 18.4 17.8 90 1.1 E 20 32 11 17 - - 2.0
21/08:30am 19.7 19.4 18.2 91 1.0 E 17 22 9 12 - - 2.0
21/08:20am 19.8 19.4 18.1 90 1.1 E 17 22 9 12 - - 2.0
21/08:10am 19.7 19.7 18.0 90 1.1 E 15 19 8 10 - - 2.0
21/08:00am 19.6 19.6 18.1 91 1.0 ESE 15 20 8 11 - - 2.0
21/07:50am 19.5 19.8 17.9 90 1.0 E 13 20 7 11 - - 2.0
21/07:40am 19.3 19.1 17.6 90 1.1 E 15 24 8 13 - - 2.0
21/07:30am 19.2 19.0 17.6 90 1.0 E 15 22 8 12 - - 2.0
21/07:20am 19.2 18.5 17.4 89 1.1 E 17 22 9 12 - - 2.0
21/07:10am 19.1 18.8 17.4 90 1.1 E 15 22 8 12 - - 2.0
21/07:00am 19.0 18.3 17.4 90 1.0 E 17 20 9 11 - - 2.0
21/06:50am 18.8 18.5 17.4 91 0.9 ESE 15 20 8 11 - - 2.0
21/06:40am 18.9 18.2 17.4 91 1.0 E 17 22 9 12 - - 2.0
21/06:30am 18.9 18.3 17.6 92 0.8 E 17 22 9 12 - - 1.8
21/06:20am 18.9 18.8 17.9 94 0.6 E 15 24 8 13 - - 1.8
21/06:10am 18.8 18.7 17.9 94 0.6 E 15 19 8 10 - - 1.8
21/06:00am 18.7 19.0 17.9 95 0.5 E 13 17 7 9 - - 1.8
21/05:50am 18.5 19.4 17.6 94 0.6 E 9 15 5 8 - - 1.6
21/05:40am 18.4 18.9 17.4 94 0.6 E 11 17 6 9 - - 1.4
21/05:30am 18.4 18.4 17.3 93 0.7 E 13 19 7 10 - - 1.2
21/05:20am 18.5 18.9 17.2 92 0.8 E 11 15 6 8 - - 1.2
21/05:10am 18.6 19.0 17.3 92 0.8 ESE 11 19 6 10 - - 1.2
21/05:00am 18.7 18.4 17.3 91 0.9 E 15 19 8 10 - - 1.2
21/04:50am 18.6 18.6 17.3 92 0.8 ESE 13 19 7 10 - - 1.2
21/04:40am 18.5 18.1 17.1 91 0.9 E 15 20 8 11 - - 1.2
21/04:30am 18.4 18.4 17.1 92 0.8 E 13 19 7 10 - - 1.2
21/04:20am 18.5 18.5 17.3 93 0.8 ESE 13 24 7 13 - - 1.2
21/04:10am 18.6 18.3 17.3 92 0.8 ESE 15 19 8 10 - - 1.2
21/04:00am 18.7 18.7 17.2 91 0.9 E 13 20 7 11 - - 1.2
21/03:50am 18.7 18.7 17.1 90 1.0 E 13 22 7 12 - - 1.2
21/03:40am 18.6 18.6 17.1 91 0.9 E 13 17 7 9 - - 1.2
21/03:30am 18.6 17.7 16.9 90 1.1 E 17 26 9 14 - - 1.2
21/03:20am 18.6 18.4 16.8 89 1.1 E 13 15 7 8 - - 1.2
21/03:10am 18.7 18.2 16.8 89 1.2 ESE 15 19 8 10 - - 1.2
21/03:00am 18.8 19.1 16.9 89 1.2 ESE 11 13 6 7 - - 1.2
21/02:50am 18.8 18.7 16.9 89 1.2 E 13 17 7 9 - - 1.2
21/02:40am 18.8 18.3 16.8 88 1.3 E 15 20 8 11 - - 1.2
21/02:30am 18.9 19.3 17.2 90 1.1 ESE 11 17 6 9 - - 1.2
21/02:20am 19.0 18.7 17.4 90 1.0 ESE 15 20 8 11 - - 1.2
21/02:10am 19.0 19.5 17.4 90 1.0 ESE 11 17 6 9 - - 1.2
21/02:00am 18.8 19.3 17.4 91 0.9 ESE 11 17 6 9 - - 1.2
21/01:50am 18.9 19.4 17.4 91 1.0 E 11 17 6 9 - - 1.2
21/01:40am 18.8 19.7 17.5 92 0.8 ESE 9 15 5 8 - - 1.2
21/01:30am 18.8 19.6 17.4 91 0.9 ESE 9 11 5 6 - - 1.2
21/01:20am 18.7 19.4 17.1 90 1.0 ESE 9 17 5 9 - - 1.2
21/01:10am 18.7 19.5 17.2 91 0.9 ESE 9 13 5 7 - - 1.2
21/01:00am 18.7 19.4 17.1 90 1.0 E 9 15 5 8 - - 1.2
21/12:50am 18.5 19.6 17.0 91 0.9 E 7 11 4 6 - - 1.2
21/12:40am 18.2 19.8 16.8 91 0.9 E 4 9 2 5 - - 1.2
21/12:30am 18.1 20.0 16.6 91 0.9 ESE 2 4 1 2 - - 1.2
21/12:20am 18.0 19.8 16.5 91 0.9 SE 2 4 1 2 - - 1.2
21/12:10am 17.9 18.9 16.4 91 0.9 E 6 6 3 3 - - 1.2
21/12:00am 17.9 18.9 16.3 90 1.0 E 6 7 3 4 - - 1.2
 
Date/Time
EST
Temp
°C
App
Temp
°C
Dew
Point
°C
Rel
Hum
%
Delta-T
°C
Wind Press
QNH
hPa
Press
MSL
hPa
Rain since
9am
mm
Dir  Spd
km/h
Gust
km/h
Spd
kts
Gust
kts
20/11:50pm 18.0 18.9 16.2 89 1.1 ENE 6 7 3 4 - - 1.2
20/11:40pm 18.3 19.3 16.3 88 1.2 E 6 9 3 5 - - 1.2
20/11:30pm 18.6 19.5 16.5 87 1.3 E 7 9 4 5 - - 1.2
20/11:20pm 18.7 19.2 16.6 87 1.3 E 9 13 5 7 - - 1.2
20/11:10pm 18.9 19.2 16.9 88 1.3 E 11 15 6 8 - - 1.2
20/11:00pm 18.9 19.1 16.7 87 1.4 E 11 19 6 10 - - 1.2
20/10:50pm 18.9 19.5 16.9 88 1.3 ESE 9 17 5 9 - - 1.2
20/10:40pm 18.9 19.1 16.7 87 1.4 E 11 15 6 8 - - 1.2
20/10:30pm 18.8 19.4 16.7 87 1.3 ESE 9 13 5 7 - - 1.2
20/10:20pm 18.8 19.3 16.6 87 1.4 ESE 9 11 5 6 - - 1.2
20/10:10pm 18.7 19.2 16.5 87 1.4 E 9 13 5 7 - - 1.2
20/10:00pm 18.7 18.8 16.6 87 1.3 E 11 15 6 8 - - 1.2
20/09:50pm 18.9 19.0 16.5 86 1.5 E 11 13 6 7 - - 1.2
20/09:40pm 19.0 19.6 16.7 86 1.4 ESE 9 15 5 8 - - 1.2
20/09:30pm 19.0 19.6 16.9 88 1.3 ESE 9 15 5 8 - - 1.2
20/09:20pm 19.0 20.3 17.1 89 1.2 ESE 6 9 3 5 - - 1.2
20/09:10pm 19.0 20.1 17.0 88 1.3 ESE 7 9 4 5 - - 1.2
20/09:00pm 19.1 20.3 17.3 89 1.1 ESE 7 13 4 7 - - 1.2
20/08:50pm 19.2 20.5 17.6 90 1.0 ESE 7 13 4 7 - - 1.2
20/08:40pm 19.2 19.8 17.7 91 1.0 E 11 15 6 8 - - 1.2
20/08:30pm 19.2 19.4 17.7 91 1.0 E 13 17 7 9 - - 1.2
20/08:20pm 19.2 19.4 17.6 90 1.0 E 13 15 7 8 - - 1.2
20/08:00pm 19.3 20.3 17.8 91 1.0 ESE 9 11 5 6 - - 1.2
20/07:50pm 19.4 20.5 18.1 92 0.8 ESE 9 13 5 7 - - 1.2
20/07:40pm 19.4 20.2 18.1 92 0.8 ESE 11 15 6 8 - - 1.0
20/07:30pm 19.3 18.9 18.0 92 0.8 E 17 19 9 10 - - 1.0
20/07:20pm 19.4 19.8 18.2 93 0.8 E 13 15 7 8 - - 1.0
20/07:10pm 19.4 19.9 18.3 93 0.7 E 13 15 7 8 - - 1.0
20/07:00pm 19.5 19.6 18.3 93 0.8 E 15 17 8 9 - - 0.8
20/06:50pm 19.6 21.2 18.3 92 0.8 ESE 7 11 4 6 - - 0.8
20/06:40pm 19.7 20.9 18.3 92 0.9 ESE 9 15 5 8 - - 0.8
20/06:30pm 19.8 21.0 18.3 91 1.0 ESE 9 13 5 7 - - 0.8
20/06:20pm 19.8 21.2 18.6 93 0.8 E 9 15 5 8 - - 0.8
20/06:10pm 20.0 21.0 18.7 92 0.8 E 11 13 6 7 - - 0.8
20/06:00pm 20.3 21.5 18.3 88 1.3 E 9 13 5 7 - - 0.6
20/05:50pm 20.2 20.7 18.4 89 1.2 E 13 17 7 9 - - 0.6
20/05:40pm 20.3 21.2 18.4 89 1.2 E 11 15 6 8 - - 0.6
20/05:30pm 20.7 21.0 18.8 89 1.2 E 15 19 8 10 - - 0.6
20/05:20pm 21.4 23.1 19.3 88 1.4 ESE 9 13 5 7 - - 0.6
20/05:10pm 20.9 22.9 19.2 90 1.1 ESE 7 9 4 5 - - 0.6
20/05:00pm 21.4 23.6 19.1 87 1.5 ESE 6 9 3 5 - - 0.6
20/04:50pm 21.2 22.8 19.2 88 1.3 E 9 9 5 5 - - 0.4
20/04:40pm 21.1 21.9 19.1 88 1.3 ENE 13 17 7 9 - - 0.4
20/04:30pm 22.4 24.4 19.2 82 2.1 E 7 9 4 5 - - 0.2
20/04:20pm 22.1 24.1 19.1 83 2.0 ESE 7 9 4 5 - - 0.2
20/04:10pm 22.4 23.3 18.4 78 2.6 E 11 15 6 8 - - 0.2
20/04:00pm 22.9 23.1 18.5 76 2.9 ENE 15 19 8 10 - - 0.2
20/03:50pm 23.5 24.8 19.2 77 2.8 ESE 11 15 6 8 - - 0.2
20/03:40pm 22.1 23.1 19.5 85 1.7 E 13 17 7 9 - - 0.2
20/03:30pm 21.7 23.4 19.3 86 1.6 ESE 9 11 5 6 - - 0.2
20/03:20pm 21.6 22.9 19.3 87 1.5 ESE 11 15 6 8 - - 0.2
20/03:10pm 22.2 23.5 19.4 84 1.8 ESE 11 15 6 8 - - 0.0
20/03:00pm 23.1 23.1 18.2 74 3.2 E 15 19 8 10 - - 0.0
20/02:50pm 24.2 24.2 18.2 69 3.9 E 15 19 8 10 - - 0.0
20/02:40pm 24.4 24.5 17.5 65 4.5 ENE 13 15 7 8 - - 0.0
20/02:30pm 24.9 24.6 18.2 66 4.4 E 17 22 9 12 - - 0.0
20/02:20pm 24.6 25.2 18.5 69 4.0 ENE 13 19 7 10 - - 0.0
20/02:10pm 24.4 24.4 18.1 68 4.1 ENE 15 19 8 10 - - 0.0
20/02:00pm 24.6 24.7 18.3 68 4.1 ENE 15 20 8 11 - - 0.0
20/01:50pm 24.4 24.1 18.2 68 4.1 ENE 17 19 9 10 - - 0.0
20/01:40pm 24.2 24.1 17.8 67 4.2 E 15 22 8 12 - - 0.0
20/01:30pm 24.1 23.5 17.6 67 4.2 E 17 20 9 11 - - 0.0
20/01:20pm 24.2 23.6 17.6 66 4.3 E 17 24 9 13 - - 0.0
20/01:10pm 24.1 23.1 17.5 66 4.3 E 19 24 10 13 - - 0.0
20/01:00pm 24.3 23.7 17.5 66 4.4 E 17 20 9 11 - - 0.0
20/12:50pm 24.1 23.6 17.7 67 4.1 ENE 17 22 9 12 - - 0.0
20/12:40pm 23.9 23.0 18.3 71 3.7 E 20 26 11 14 - - 0.0
20/12:30pm 23.8 24.4 18.5 72 3.5 E 13 17 7 9 - - 0.0
20/12:20pm 24.1 24.5 18.1 69 3.9 E 13 19 7 10 - - 0.0
20/12:10pm 24.0 22.8 17.5 67 4.2 E 20 24 11 13 - - 0.0
20/12:00pm 24.7 23.3 17.0 62 4.9 E 20 26 11 14 - - 0.0
20/11:50am 24.3 23.2 17.4 65 4.5 E 19 24 10 13 - - 0.0
20/11:40am 23.9 22.6 17.3 66 4.2 E 20 22 11 12 - - 0.0
20/11:30am 23.6 22.7 18.1 71 3.6 E 20 28 11 15 - - 0.0
20/11:20am 23.7 21.9 17.0 66 4.3 E 22 26 12 14 - - 0.0
20/11:10am 23.5 22.1 17.0 67 4.2 E 20 24 11 13 - - 0.0
20/11:00am 23.2 21.8 17.0 68 4.0 E 20 28 11 15 - - 0.0
20/10:50am 23.5 22.5 16.6 65 4.4 E 17 20 9 11 - - 0.0
20/10:40am 23.6 22.6 17.5 68 3.9 E 19 20 10 11 - - 0.0
20/10:30am 22.8 22.0 16.2 66 4.2 ESE 15 26 8 14 - - 0.0
20/10:20am 22.7 22.6 17.8 74 3.2 E 15 19 8 10 - - 0.0
20/10:10am 22.6 23.1 17.4 72 3.3 ESE 11 19 6 10 - - 0.0
20/10:00am 23.1 23.5 18.2 74 3.2 E 13 17 7 9 - - 0.0
20/09:50am 23.0 22.6 18.0 73 3.2 E 17 20 9 11 - - 0.0
20/09:40am 22.6 21.6 17.5 73 3.3 E 19 26 10 14 - - 0.0
20/09:30am 22.3 21.8 16.8 71 3.5 ESE 15 22 8 12 - - 0.0
20/09:20am 21.4 21.5 17.4 78 2.6 E 13 19 7 10 - - 0.0
20/09:10am 20.6 20.9 17.9 84 1.7 ESE 13 19 7 10 - - 0.0
20/09:00am 20.8 21.1 17.8 83 1.9 E 13 17 7 9 - - 0.8
20/08:50am 20.4 21.4 17.8 85 1.7 ESE 9 13 5 7 - - 0.8
20/08:40am 20.5 21.1 17.7 84 1.8 ESE 11 17 6 9 - - 0.8
20/08:30am 20.6 21.2 17.8 84 1.8 E 11 17 6 9 - - 0.8
20/08:20am 20.4 20.2 17.5 83 1.9 E 15 20 8 11 - - 0.8
20/08:10am 20.3 20.0 17.3 83 1.9 E 15 20 8 11 - - 0.8
20/08:00am 20.1 20.5 17.3 84 1.8 E 11 17 6 9 - - 0.8
20/07:50am 19.7 20.3 17.8 89 1.2 E 11 17 6 9 - - 0.8
20/07:40am 19.4 19.9 17.5 89 1.2 E 11 19 6 10 - - 0.8
20/07:30am 19.0 19.1 17.5 91 1.0 E 13 17 7 9 - - 0.8
20/07:20am 18.7 18.0 17.4 92 0.8 E 17 20 9 11 - - 0.8
20/07:10am 18.7 18.5 17.6 93 0.7 E 15 19 8 10 - - 0.8
20/07:00am 18.9 18.4 17.8 93 0.7 E 17 20 9 11 - - 0.8
20/06:50am 18.9 19.9 17.8 93 0.7 E 9 15 5 8 - - 0.8
20/06:40am 18.9 19.1 17.7 93 0.8 E 13 19 7 10 - - 0.8
20/06:30am 18.9 19.0 17.4 91 1.0 ESE 13 19 7 10 - - 0.8
20/06:20am 18.8 19.3 17.4 91 0.9 ESE 11 17 6 9 - - 0.8
20/06:10am 18.7 19.0 17.1 90 1.0 E 11 17 6 9 - - 0.8
20/06:00am 18.7 19.8 17.0 90 1.1 E 7 11 4 6 - - 0.8
20/05:50am 18.6 19.8 16.8 89 1.1 E 6 9 3 5 - - 0.8
20/05:40am 18.5 19.4 16.5 88 1.2 ESE 7 11 4 6 - - 0.8
20/05:30am 18.6 19.0 16.3 86 1.4 ESE 9 15 5 8 - - 0.8
20/05:20am 18.7 18.9 16.8 89 1.2 ESE 11 17 6 9 - - 0.8
20/05:10am 18.7 18.6 16.9 89 1.1 ESE 13 17 7 9 - - 0.8
20/05:00am 18.7 19.0 16.9 89 1.1 ESE 11 13 6 7 - - 0.8
20/04:50am 18.6 18.5 16.9 90 1.1 ESE 13 17 7 9 - - 0.8
20/04:40am 18.6 18.1 16.9 90 1.1 E 15 20 8 11 - - 0.8
20/04:30am 18.5 18.4 16.9 90 1.0 ESE 13 19 7 10 - - 0.8
20/04:20am 18.3 17.8 16.8 91 0.9 ESE 15 19 8 10 - - 0.8
20/04:10am 18.1 18.3 16.7 91 0.9 E 11 15 6 8 - - 0.8
20/04:00am 18.1 18.2 16.6 91 0.9 ESE 11 20 6 11 - - 0.8
20/03:50am 18.1 18.5 16.3 89 1.1 E 9 13 5 7 - - 0.8
20/03:40am 18.0 18.0 16.2 89 1.1 E 11 17 6 9 - - 0.8
20/03:30am 18.1 18.1 16.2 89 1.2 E 11 15 6 8 - - 0.8
20/03:20am 18.1 18.0 16.1 88 1.2 E 11 15 6 8 - - 0.8
20/03:10am 18.1 18.1 16.2 89 1.2 E 11 17 6 9 - - 0.8
20/03:00am 18.1 17.3 16.0 87 1.3 E 15 20 8 11 - - 0.8
20/02:50am 18.1 17.7 16.1 88 1.2 E 13 17 7 9 - - 0.8
20/02:40am 18.2 17.1 16.4 89 1.1 E 17 20 9 11 - - 0.8
20/02:30am 18.3 17.6 16.5 89 1.1 E 15 20 8 11 - - 0.8
20/02:20am 18.5 17.5 16.7 89 1.1 E 17 20 9 11 - - 0.8
20/02:10am 18.5 17.2 16.7 89 1.1 E 19 22 10 12 - - 0.8
20/02:00am 18.5 18.0 16.8 90 1.1 E 15 19 8 10 - - 0.8
20/01:50am 18.6 18.0 16.7 89 1.2 E 15 19 8 10 - - 0.8
20/01:40am 18.7 18.2 16.8 89 1.2 E 15 17 8 9 - - 0.8
20/01:30am 18.9 18.0 16.9 88 1.3 E 17 22 9 12 - - 0.8
20/01:20am 19.0 18.2 17.0 88 1.3 E 17 24 9 13 - - 0.8
20/01:10am 19.0 17.7 16.9 88 1.3 E 19 22 10 12 - - 0.8
20/01:00am 19.1 18.3 17.0 88 1.3 E 17 20 9 11 - - 0.8
20/12:50am 19.2 18.4 17.2 88 1.3 E 17 26 9 14 - - 0.8
20/12:40am 19.3 19.3 17.3 88 1.3 E 13 17 7 9 - - 0.8
20/12:30am 19.3 18.7 17.5 89 1.1 E 17 22 9 12 - - 0.8
20/12:20am 19.3 18.2 17.3 88 1.3 E 19 24 10 13 - - 0.8
20/12:00am 19.4 18.3 17.4 88 1.3 E 19 20 10 11 - - 0.8
 
Date/Time
EST
Temp
°C
App
Temp
°C
Dew
Point
°C
Rel
Hum
%
Delta-T
°C
Wind Press
QNH
hPa
Press
MSL
hPa
Rain since
9am
mm
Dir  Spd
km/h
Gust
km/h
Spd
kts
Gust
kts
19/11:50pm 19.5 18.4 17.4 88 1.3 E 19 24 10 13 - - 0.8
19/11:40pm 19.5 18.6 17.7 89 1.1 E 19 24 10 13 - - 0.8
19/11:30pm 19.4 19.2 17.7 90 1.1 E 15 19 8 10 - - 0.8
19/11:20pm 19.3 19.2 17.8 91 1.0 E 15 19 8 10 - - 0.8
19/11:10pm 19.2 19.0 17.5 90 1.1 E 15 20 8 11 - - 0.8
19/11:00pm 19.1 19.2 17.4 90 1.1 E 13 17 7 9 - - 0.8
19/10:50pm 19.2 18.9 17.4 89 1.1 E 15 20 8 11 - - 0.8
19/10:40pm 19.2 19.0 17.5 90 1.1 E 15 19 8 10 - - 0.8
19/10:30pm 19.2 19.0 17.5 90 1.1 E 15 17 8 9 - - 0.8
19/10:20pm 19.0 19.1 17.5 91 1.0 E 13 19 7 10 - - 0.8
19/10:10pm 18.9 19.0 17.5 92 0.9 E 13 19 7 10 - - 0.8
19/10:00pm 18.9 18.9 17.3 90 1.0 E 13 17 7 9 - - 0.8
19/09:50pm 18.9 18.9 17.3 90 1.0 E 13 17 7 9 - - 0.8
19/09:40pm 19.0 18.7 17.3 90 1.1 E 15 22 8 12 - - 0.8
19/09:30pm 18.9 18.5 17.2 90 1.1 E 15 20 8 11 - - 0.8
19/09:20pm 18.9 18.5 17.1 89 1.1 E 15 17 8 9 - - 0.8
19/09:10pm 18.9 18.4 17.0 89 1.2 E 15 20 8 11 - - 0.8
19/09:00pm 19.0 18.5 16.9 88 1.3 E 15 20 8 11 - - 0.8
19/08:50pm 19.0 18.2 17.0 88 1.3 E 17 20 9 11 - - 0.8
19/08:40pm 19.0 18.3 17.3 90 1.1 E 17 24 9 13 - - 0.8
19/08:30pm 19.1 18.4 17.3 89 1.1 E 17 20 9 11 - - 0.8
19/08:20pm 19.5 19.3 17.6 89 1.2 E 15 17 8 9 - - 0.8
19/08:10pm 19.9 19.1 17.9 88 1.3 E 19 24 10 13 - - 0.8
19/08:00pm 20.0 19.3 18.3 90 1.1 E 19 22 10 12 - - 0.8
19/07:50pm 20.1 19.9 18.6 91 1.0 E 17 20 9 11 - - 0.8
19/07:40pm 20.1 19.9 18.6 91 1.0 E 17 19 9 10 - - 0.8
19/07:30pm 20.2 20.5 18.7 91 1.0 E 15 19 8 10 - - 0.8
19/07:20pm 20.3 20.6 18.7 90 1.0 E 15 17 8 9 - - 0.8
19/07:10pm 20.4 21.0 18.6 89 1.2 E 13 15 7 8 - - 0.8
19/07:00pm 20.6 21.5 18.5 88 1.4 E 11 15 6 8 - - 0.8
19/06:50pm 21.0 22.1 18.8 87 1.4 E 11 15 6 8 - - 0.8
19/06:40pm 21.2 21.6 19.0 87 1.4 E 15 19 8 10 - - 0.8
19/06:30pm 21.8 22.2 19.0 84 1.8 E 15 20 8 11 - - 0.8
19/06:20pm 22.2 23.2 19.4 84 1.8 E 13 17 7 9 - - 0.8
19/06:10pm 22.0 22.9 19.3 85 1.8 E 13 17 7 9 - - 0.8
19/06:00pm 22.0 23.3 19.4 85 1.7 E 11 20 6 11 - - 0.8
19/05:50pm 22.3 23.9 19.1 82 2.1 ESE 9 19 5 10 - - 0.8
19/05:40pm 22.7 24.8 19.3 81 2.2 ESE 7 11 4 6 - - 0.8
19/05:30pm 22.9 24.5 19.1 79 2.5 ESE 9 13 5 7 - - 0.8
19/05:20pm 23.4 25.4 19.2 77 2.8 SE 7 9 4 5 - - 0.8
19/05:10pm 23.4 24.6 19.1 77 2.8 ESE 11 15 6 8 - - 0.8
19/05:00pm 23.1 24.1 18.6 76 2.9 ESE 11 17 6 9 - - 0.8
19/04:50pm 22.5 22.9 18.9 80 2.4 E 15 19 8 10 - - 0.8
19/04:40pm 22.7 23.3 19.5 82 2.1 E 15 17 8 9 - - 0.8
19/04:30pm 23.3 24.8 19.8 81 2.3 ESE 11 15 6 8 - - 0.8
19/04:20pm 23.5 24.9 19.5 78 2.7 ESE 11 15 6 8 - - 0.8
19/04:10pm 23.5 25.1 20.0 81 2.3 E 11 17 6 9 - - 0.8
19/04:00pm 23.6 25.7 20.2 81 2.3 ESE 9 15 5 8 - - 0.8
19/03:50pm 22.4 24.7 19.9 86 1.7 SE 7 9 4 5 - - 0.8
19/03:40pm 22.1 24.5 20.1 88 1.3 ESE 7 13 4 7 - - 0.8
19/03:30pm 21.8 23.8 19.9 89 1.3 ESE 9 17 5 9 - - 0.8
19/03:20pm 21.5 24.2 20.2 92 0.9 ESE 6 9 3 5 - - 0.8
19/03:10pm 21.4 24.1 20.3 93 0.7 ENE 6 7 3 4 - - 0.2
19/03:00pm 21.5 24.0 20.3 93 0.8 ENE 7 9 4 5 - - 0.0
19/02:50pm 21.5 24.0 20.3 93 0.8 E 7 9 4 5 - - 0.0
19/02:40pm 21.2 22.7 19.8 92 0.9 ENE 11 15 6 8 - - 0.0
19/02:30pm 21.3 23.0 20.1 93 0.8 E 11 15 6 8 - - 0.0
19/02:20pm 21.0 23.0 19.9 93 0.7 E 9 13 5 7 - - 0.0
19/02:10pm 21.0 22.0 19.5 91 1.0 ENE 13 17 7 9 - - 0.0
19/02:00pm 21.4 22.6 19.8 91 1.1 ENE 13 17 7 9 - - 0.0
19/01:50pm 21.8 23.8 20.0 89 1.2 ENE 9 15 5 8 - - 0.0
19/01:40pm 22.1 24.4 20.6 91 1.0 ENE 9 11 5 6 - - 0.0
19/01:30pm 22.4 24.7 20.6 89 1.2 E 9 11 5 6 - - 0.0
19/01:20pm 22.1 24.3 20.4 90 1.1 E 9 13 5 7 - - 0.0
19/01:10pm 21.7 23.4 20.2 91 1.0 E 11 13 6 7 - - 0.0
19/01:00pm 21.2 22.4 19.9 92 0.9 ENE 13 15 7 8 - - 0.0
19/12:50pm 21.1 22.2 19.7 92 0.9 ENE 13 15 7 8 - - 0.0
19/12:40pm 21.5 23.0 19.8 90 1.1 ENE 11 15 6 8 - - 0.0
19/12:30pm 22.1 23.3 20.0 88 1.4 E 13 19 7 10 - - 0.0
19/12:20pm 23.1 24.1 19.5 80 2.4 E 13 15 7 8 - - 0.0
19/12:10pm 23.0 23.6 19.4 80 2.4 ENE 15 17 8 9 - - 0.0
19/12:00pm 23.2 23.4 19.3 79 2.6 E 17 20 9 11 - - 0.0
19/11:50am 23.2 23.6 19.8 81 2.3 E 17 19 9 10 - - 0.0
19/11:40am 23.5 23.8 19.6 79 2.6 E 17 22 9 12 - - 0.0
19/11:30am 23.5 24.7 20.0 81 2.3 E 13 15 7 8 - - 0.0
19/11:20am 23.0 24.4 20.3 85 1.8 E 13 19 7 10 - - 0.0
19/11:10am 22.7 23.6 20.0 85 1.8 ESE 15 19 8 10 - - 0.0
19/11:00am 22.8 22.6 19.4 81 2.3 E 19 24 10 13 - - 0.0
19/10:50am 22.6 22.5 19.5 82 2.1 E 19 24 10 13 - - 0.0
19/10:40am 22.3 23.5 19.9 86 1.6 ENE 13 19 7 10 - - 0.0
19/10:30am 21.5 22.3 19.8 90 1.1 E 15 19 8 10 - - 0.0
19/10:20am 21.8 23.0 20.0 89 1.2 E 13 17 7 9 - - 0.0
19/10:10am 21.9 22.7 19.9 88 1.3 E 15 19 8 10 - - 0.0
19/10:00am 22.0 22.8 19.9 88 1.4 E 15 19 8 10 - - 0.0
19/09:50am 21.9 22.3 19.9 88 1.3 E 17 19 9 10 - - 0.0
19/09:40am 22.2 23.5 20.1 88 1.4 E 13 17 7 9 - - 0.0
19/09:30am 21.8 22.3 20.0 89 1.2 E 17 22 9 12 - - 0.0
19/09:20am 21.7 22.6 20.0 90 1.1 E 15 22 8 12 - - 0.0
19/09:10am 21.5 23.0 19.8 90 1.1 E 11 17 6 9 - - 0.0
19/09:00am 21.4 22.9 19.7 90 1.1 E 11 17 6 9 - - 7.8
19/08:50am 21.3 23.2 19.8 91 1.0 E 9 11 5 6 - - 7.8
19/08:40am 21.3 22.8 19.7 91 1.1 E 11 17 6 9 - - 7.8
19/08:30am 21.0 21.7 19.6 92 0.9 E 15 22 8 12 - - 7.8
19/08:20am 21.0 22.1 19.6 92 0.9 E 13 20 7 11 - - 7.8

Other Formats:

Comma delimited format used in spreadsheet applications
http://www.bom.gov.au/fwo/IDQ60801/IDQ60801.99124.axf

JavaScript Object Notation format (JSON) in row-major order
http://www.bom.gov.au/fwo/IDQ60801/IDQ60801.99124.json